createdAt,value
2018-12-03T00:00:53.789Z,215
2018-12-03T00:01:53.979Z,215
2018-12-03T00:02:53.914Z,215
2018-12-03T00:03:53.956Z,215
2018-12-03T00:04:53.824Z,215
2018-12-03T00:05:53.832Z,215
2018-12-03T00:06:53.876Z,215
2018-12-03T00:07:53.832Z,215
2018-12-03T00:08:53.968Z,215
2018-12-03T00:09:58.690Z,215
2018-12-03T00:10:53.888Z,215.5
2018-12-03T00:11:53.793Z,215.3
2018-12-03T00:12:53.859Z,215.1
2018-12-03T00:13:53.834Z,215.1
2018-12-03T00:14:53.804Z,215
2018-12-03T00:15:53.926Z,215
2018-12-03T00:16:53.737Z,215
2018-12-03T00:17:53.805Z,215
2018-12-03T00:18:53.799Z,215
2018-12-03T00:19:53.801Z,215
2018-12-03T00:20:53.907Z,215
2018-12-03T00:21:53.826Z,215
2018-12-03T00:22:53.781Z,215
2018-12-03T00:23:53.834Z,215
2018-12-03T00:24:53.837Z,220.9
2018-12-03T00:25:53.955Z,236.9
2018-12-03T00:26:53.817Z,249.9
2018-12-03T00:27:53.820Z,251.5
2018-12-03T00:28:53.803Z,249.6
2018-12-03T00:29:53.853Z,274.1
2018-12-03T00:30:53.930Z,245.1
2018-12-03T00:31:53.815Z,243.4
2018-12-03T00:32:54.358Z,234
2018-12-03T00:33:53.784Z,227.6
2018-12-03T00:34:53.894Z,235.6
2018-12-03T00:35:53.784Z,242.5
2018-12-03T00:36:53.848Z,240.6
2018-12-03T00:37:53.800Z,262.7
2018-12-03T00:38:53.759Z,257.6
2018-12-03T00:39:53.831Z,253.3
2018-12-03T00:40:53.803Z,254.6
2018-12-03T00:41:53.921Z,246.1
2018-12-03T00:42:53.852Z,248.1
2018-12-03T00:43:53.825Z,248.1
2018-12-03T00:44:53.809Z,218.2
2018-12-03T00:45:53.810Z,203.5
2018-12-03T00:46:53.944Z,197.4
2018-12-03T00:47:53.879Z,194.8
2018-12-03T00:48:53.825Z,201.9
2018-12-03T00:49:53.781Z,222.5
2018-12-03T00:50:53.817Z,226.8
2018-12-03T00:51:53.897Z,221.9
2018-12-03T00:52:53.949Z,192.6
2018-12-03T00:53:53.859Z,183.8
2018-12-03T00:54:53.772Z,188.5
2018-12-03T00:55:53.802Z,190.7
2018-12-03T00:56:53.826Z,201
2018-12-03T00:57:53.898Z,226
2018-12-03T00:58:53.805Z,239
2018-12-03T00:59:53.809Z,240.2
2018-12-03T01:00:53.752Z,213.5
2018-12-03T01:01:53.845Z,209.6
2018-12-03T01:02:54.030Z,207.8
2018-12-03T01:03:53.830Z,186.3
2018-12-03T01:04:53.843Z,177.1
2018-12-03T01:05:53.769Z,173.1
2018-12-03T01:06:53.776Z,171.4
2018-12-03T01:07:53.893Z,170.7
2018-12-03T01:08:53.832Z,181.2
2018-12-03T01:09:53.754Z,192.3
2018-12-03T01:10:53.886Z,213.5
2018-12-03T01:11:53.753Z,223.2
2018-12-03T01:12:53.842Z,223
2018-12-03T01:13:53.786Z,237.5
2018-12-03T01:14:53.824Z,237.6
2018-12-03T01:15:53.890Z,243.5
2018-12-03T01:16:53.781Z,250.9
2018-12-03T01:17:53.790Z,249.1
2018-12-03T01:18:53.790Z,249.3
2018-12-03T01:19:53.810Z,248.3
2018-12-03T01:20:53.950Z,254.7
2018-12-03T01:21:53.887Z,246.9
2018-12-03T01:22:53.764Z,250.1
2018-12-03T01:23:53.812Z,250.5
2018-12-03T01:24:53.923Z,254.2
2018-12-03T01:25:53.831Z,255.5
2018-12-03T01:26:53.846Z,256
2018-12-03T01:27:53.825Z,267.1
2018-12-03T01:28:53.795Z,241.6
2018-12-03T01:29:53.880Z,239.7
2018-12-03T01:30:53.854Z,247.5
2018-12-03T01:31:54.342Z,240
2018-12-03T01:32:53.852Z,231.4
2018-12-03T01:33:53.764Z,233.3
2018-12-03T01:34:53.854Z,232.3
2018-12-03T01:35:53.896Z,230.4
2018-12-03T01:36:53.788Z,229.6
2018-12-03T01:37:53.885Z,219.9
2018-12-03T01:38:53.770Z,192.2
2018-12-03T01:39:53.765Z,188.4
2018-12-03T01:40:53.783Z,186
2018-12-03T01:41:53.836Z,180.5
2018-12-03T01:42:53.916Z,183
2018-12-03T01:43:53.766Z,192.7
2018-12-03T01:44:53.781Z,193.4
2018-12-03T01:45:53.763Z,180.6
2018-12-03T01:46:53.882Z,174.7
2018-12-03T01:47:53.812Z,172.2
2018-12-03T01:48:53.805Z,171
2018-12-03T01:49:53.771Z,170.5
2018-12-03T01:50:53.785Z,170.2
2018-12-03T01:51:53.896Z,170.1
2018-12-03T01:52:53.837Z,170
2018-12-03T01:53:54.828Z,178.2
2018-12-03T01:54:53.866Z,185.9
2018-12-03T01:55:53.773Z,183.9
2018-12-03T01:56:53.903Z,184.4
2018-12-03T01:57:53.788Z,185.6
2018-12-03T01:58:53.826Z,177.2
2018-12-03T01:59:53.810Z,173.3
2018-12-03T02:00:53.807Z,171.6
2018-12-03T02:01:53.827Z,181.9
2018-12-03T02:02:53.959Z,175.8
2018-12-03T02:03:53.864Z,172.7
2018-12-03T02:04:53.792Z,171.2
2018-12-03T02:05:53.757Z,170.6
2018-12-03T02:06:53.884Z,170.3
2018-12-03T02:07:53.868Z,176.8
2018-12-03T02:08:53.833Z,184.9
2018-12-03T02:09:53.797Z,192
2018-12-03T02:10:53.845Z,200.6
2018-12-03T02:11:53.764Z,208.5
2018-12-03T02:12:53.810Z,211.9
2018-12-03T02:13:53.809Z,196.6
2018-12-03T02:14:53.847Z,182.2
2018-12-03T02:15:53.840Z,175.5
2018-12-03T02:16:53.811Z,176.7
2018-12-03T02:17:53.810Z,185.2
2018-12-03T02:18:53.894Z,189.1
2018-12-03T02:19:53.827Z,199.1
2018-12-03T02:20:53.888Z,195.5
2018-12-03T02:21:54.737Z,198.5
2018-12-03T02:22:53.760Z,195.8
2018-12-03T02:23:53.879Z,201.2
2018-12-03T02:24:53.829Z,214.8
2018-12-03T02:25:53.778Z,223
2018-12-03T02:26:53.880Z,223.1
2018-12-03T02:27:53.749Z,215.6
2018-12-03T02:28:53.780Z,203.8
2018-12-03T02:29:53.815Z,206.6
2018-12-03T02:30:53.789Z,211.1
2018-12-03T02:31:53.881Z,213.7
2018-12-03T02:33:03.701Z,216.7
2018-12-03T02:33:53.816Z,226.2
2018-12-03T02:34:53.790Z,227.9
2018-12-03T02:35:53.798Z,222.7
2018-12-03T02:36:53.870Z,221.2
2018-12-03T02:37:53.911Z,219.7
2018-12-03T02:38:53.754Z,184.3
2018-12-03T02:39:53.792Z,162.8
2018-12-03T02:40:53.800Z,158.3
2018-12-03T02:41:53.814Z,164.6
2018-12-03T02:42:53.919Z,167.5
2018-12-03T02:43:53.773Z,168.9
2018-12-03T02:44:53.708Z,169.5
2018-12-03T02:45:53.811Z,169.8
2018-12-03T02:46:53.877Z,169.9
2018-12-03T02:47:53.750Z,169.9
2018-12-03T02:48:53.878Z,170
2018-12-03T02:49:53.802Z,170
2018-12-03T02:50:53.780Z,170
2018-12-03T02:51:53.804Z,170
2018-12-03T02:52:53.796Z,170
2018-12-03T02:53:53.790Z,170
2018-12-03T02:54:53.861Z,170
2018-12-03T02:55:53.830Z,170
2018-12-03T02:56:53.797Z,170
2018-12-03T02:57:53.748Z,170
2018-12-03T02:58:53.790Z,170
2018-12-03T02:59:53.865Z,170
2018-12-03T03:00:53.727Z,170
2018-12-03T03:01:53.849Z,170
2018-12-03T03:02:53.816Z,170
2018-12-03T03:03:53.768Z,170
2018-12-03T03:04:53.853Z,170
2018-12-03T03:05:53.715Z,170
2018-12-03T03:06:53.766Z,170
2018-12-03T03:07:53.781Z,170
2018-12-03T03:08:53.852Z,170
2018-12-03T03:09:53.867Z,170
2018-12-03T03:10:53.818Z,170
2018-12-03T03:11:53.819Z,170
2018-12-03T03:12:53.781Z,170
2018-12-03T03:13:53.773Z,170
2018-12-03T03:14:53.767Z,170
2018-12-03T03:15:53.798Z,170
2018-12-03T03:16:53.825Z,170
2018-12-03T03:17:53.782Z,170
2018-12-03T03:18:53.774Z,170
2018-12-03T03:19:53.865Z,170
2018-12-03T03:20:53.795Z,170
2018-12-03T03:21:53.852Z,170
2018-12-03T03:22:53.724Z,170
2018-12-03T03:23:53.847Z,170
2018-12-03T03:24:53.778Z,170
2018-12-03T03:25:53.785Z,170
2018-12-03T03:26:53.846Z,170
2018-12-03T03:27:53.703Z,170
2018-12-03T03:28:53.759Z,170
2018-12-03T03:29:53.878Z,170
2018-12-03T03:30:53.785Z,170
2018-12-03T03:31:53.832Z,170
2018-12-03T03:32:53.875Z,170
2018-12-03T03:33:53.813Z,170
2018-12-03T03:34:53.758Z,170
2018-12-03T03:35:53.784Z,170
2018-12-03T03:36:53.821Z,170
2018-12-03T03:37:53.831Z,170
2018-12-03T03:38:53.687Z,170
2018-12-03T03:39:53.797Z,170
2018-12-03T03:40:53.782Z,170
2018-12-03T03:41:53.867Z,170
2018-12-03T03:42:53.814Z,170
2018-12-03T03:43:53.744Z,170
2018-12-03T03:44:53.782Z,170
2018-12-03T03:45:53.781Z,170
2018-12-03T03:46:53.880Z,170
2018-12-03T03:47:53.724Z,170
2018-12-03T03:48:53.911Z,170
2018-12-03T03:49:53.735Z,170
2018-12-03T03:50:53.829Z,170
2018-12-03T03:51:53.767Z,170
2018-12-03T03:52:53.845Z,170
2018-12-03T03:53:53.793Z,170
2018-12-03T03:54:53.714Z,170
2018-12-03T03:55:53.752Z,170
2018-12-03T03:56:53.762Z,170
2018-12-03T03:57:53.840Z,170
2018-12-03T03:58:53.855Z,170
2018-12-03T03:59:53.810Z,170
2018-12-03T04:00:53.739Z,170
2018-12-03T04:01:53.772Z,170
2018-12-03T04:02:54.350Z,203.7
2018-12-03T04:03:53.814Z,210.9
2018-12-03T04:04:53.758Z,213.2
2018-12-03T04:05:53.701Z,197.6
2018-12-03T04:06:53.796Z,182.6
2018-12-03T04:07:53.797Z,175.7
2018-12-03T04:08:53.815Z,172.6
2018-12-03T04:09:53.865Z,171.2
2018-12-03T04:10:53.764Z,170.5
2018-12-03T04:11:53.728Z,170.3
2018-12-03T04:12:53.787Z,170.1
2018-12-03T04:13:53.745Z,170.1
2018-12-03T04:14:53.818Z,170
2018-12-03T04:15:53.775Z,170
2018-12-03T04:16:53.660Z,170
2018-12-03T04:17:53.794Z,170
2018-12-03T04:18:53.764Z,170
2018-12-03T04:19:53.833Z,170
2018-12-03T04:20:53.761Z,170
2018-12-03T04:21:53.804Z,170
2018-12-03T04:22:53.734Z,170
2018-12-03T04:23:53.725Z,170
2018-12-03T04:24:53.832Z,170
2018-12-03T04:25:53.910Z,170
2018-12-03T04:26:53.793Z,170
2018-12-03T04:27:53.719Z,170
2018-12-03T04:28:53.766Z,170
2018-12-03T04:29:53.812Z,170
2018-12-03T04:30:53.813Z,170
2018-12-03T04:31:53.772Z,170
2018-12-03T04:32:53.765Z,170
2018-12-03T04:33:53.830Z,170
2018-12-03T04:34:53.758Z,170
2018-12-03T04:35:53.751Z,170
2018-12-03T04:36:53.749Z,170
2018-12-03T04:37:53.781Z,170
2018-12-03T04:38:53.699Z,170
2018-12-03T04:39:53.760Z,170
2018-12-03T04:40:53.868Z,170
2018-12-03T04:41:53.794Z,170
2018-12-03T04:42:53.763Z,170
2018-12-03T04:43:53.678Z,170
2018-12-03T04:44:53.708Z,170
2018-12-03T04:45:53.861Z,170
2018-12-03T04:46:53.788Z,170
2018-12-03T04:47:54.439Z,170
2018-12-03T04:48:53.734Z,170
2018-12-03T04:49:53.667Z,170
2018-12-03T04:50:53.802Z,170
2018-12-03T04:51:53.814Z,170
2018-12-03T04:52:53.844Z,170
2018-12-03T04:53:53.761Z,170
2018-12-03T04:54:53.691Z,170
2018-12-03T04:55:53.787Z,170
2018-12-03T04:56:53.763Z,170
2018-12-03T04:57:53.843Z,170
2018-12-03T04:58:53.759Z,170
2018-12-03T04:59:53.791Z,170
2018-12-03T05:00:53.673Z,170
2018-12-03T05:01:53.758Z,170
2018-12-03T05:02:53.822Z,170
2018-12-03T05:03:53.761Z,170
2018-12-03T05:04:53.741Z,170
2018-12-03T05:05:53.668Z,170
2018-12-03T05:06:55.096Z,170
2018-12-03T05:07:53.752Z,170
2018-12-03T05:08:53.728Z,170
2018-12-03T05:09:53.800Z,170
2018-12-03T05:10:53.708Z,170
2018-12-03T05:11:53.830Z,170
2018-12-03T05:12:53.847Z,170
2018-12-03T05:13:53.748Z,170
2018-12-03T05:14:53.808Z,170
2018-12-03T05:15:53.727Z,170
2018-12-03T05:16:53.694Z,170
2018-12-03T05:17:53.751Z,170
2018-12-03T05:18:53.764Z,170
2018-12-03T05:19:53.810Z,170
2018-12-03T05:20:53.769Z,170
2018-12-03T05:21:53.710Z,170
2018-12-03T05:22:53.790Z,170
2018-12-03T05:23:53.707Z,170
2018-12-03T05:24:53.838Z,170
2018-12-03T05:25:53.725Z,170
2018-12-03T05:26:53.760Z,170
2018-12-03T05:27:53.686Z,170
2018-12-03T05:28:53.731Z,170
2018-12-03T05:29:54.150Z,170
2018-12-03T05:30:53.762Z,170
2018-12-03T05:31:53.745Z,170
2018-12-03T05:32:53.688Z,170
2018-12-03T05:33:53.730Z,170
2018-12-03T05:34:53.823Z,170
2018-12-03T05:35:53.702Z,170
2018-12-03T05:36:53.783Z,170
2018-12-03T05:37:53.843Z,170
2018-12-03T05:38:53.747Z,170
2018-12-03T05:39:53.736Z,170
2018-12-03T05:40:53.722Z,170
2018-12-03T05:41:53.786Z,170
2018-12-03T05:42:53.889Z,170
2018-12-03T05:43:53.662Z,170
2018-12-03T05:44:53.721Z,170
2018-12-03T05:45:55.290Z,170
2018-12-03T05:46:53.690Z,170
2018-12-03T05:47:53.653Z,170
2018-12-03T05:48:53.726Z,170
2018-12-03T05:49:53.690Z,170
2018-12-03T05:50:53.799Z,170
2018-12-03T05:51:53.727Z,170
2018-12-03T05:52:53.782Z,170
2018-12-03T05:53:53.723Z,170
2018-12-03T05:54:53.706Z,170
2018-12-03T05:55:53.738Z,170
2018-12-03T05:56:53.749Z,170
2018-12-03T05:57:53.862Z,170
2018-12-03T05:58:53.742Z,170
2018-12-03T05:59:53.827Z,170
2018-12-03T06:00:53.652Z,177.8
2018-12-03T06:01:53.818Z,178.7
2018-12-03T06:02:53.758Z,174
2018-12-03T06:03:53.742Z,171.8
2018-12-03T06:04:54.175Z,170.9
2018-12-03T06:05:54.180Z,170.4
2018-12-03T06:06:53.772Z,170.2
2018-12-03T06:07:53.702Z,170.1
2018-12-03T06:08:53.729Z,172.2
2018-12-03T06:09:53.837Z,172.1
2018-12-03T06:10:53.672Z,179.8
2018-12-03T06:11:53.813Z,186.6
2018-12-03T06:12:53.762Z,189.8
2018-12-03T06:13:53.709Z,191.2
2018-12-03T06:14:53.760Z,186.4
2018-12-03T06:15:53.726Z,177.6
2018-12-03T06:16:53.788Z,173.5
2018-12-03T06:17:53.787Z,171.6
2018-12-03T06:18:53.678Z,170.8
2018-12-03T06:19:53.800Z,170.4
2018-12-03T06:20:53.727Z,170.2
2018-12-03T06:21:53.725Z,170.1
2018-12-03T06:22:53.807Z,170
2018-12-03T06:23:53.712Z,170
2018-12-03T06:24:53.689Z,178.9
2018-12-03T06:25:53.807Z,186.4
2018-12-03T06:26:53.725Z,189.6
2018-12-03T06:27:53.713Z,192.7
2018-12-03T06:28:53.720Z,196.8
2018-12-03T06:29:53.712Z,194.5
2018-12-03T06:30:53.826Z,201.3
2018-12-03T06:31:53.721Z,208.7
2018-12-03T06:32:53.714Z,213
2018-12-03T06:33:53.732Z,216.9
2018-12-03T06:34:53.755Z,215.4
2018-12-03T06:35:53.816Z,215.2
2018-12-03T06:36:53.695Z,201.6
2018-12-03T06:37:53.716Z,186.9
2018-12-03T06:38:53.652Z,184.9
2018-12-03T06:39:53.821Z,176.8
2018-12-03T06:40:53.736Z,173.2
2018-12-03T06:41:53.697Z,171.5
2018-12-03T06:42:53.794Z,170.7
2018-12-03T06:43:53.660Z,170.3
2018-12-03T06:44:53.774Z,170.2
2018-12-03T06:45:53.734Z,170.1
2018-12-03T06:46:53.730Z,170
2018-12-03T06:47:53.736Z,170
2018-12-03T06:48:53.791Z,170
2018-12-03T06:49:53.662Z,170
2018-12-03T06:50:53.731Z,173.2
2018-12-03T06:51:53.677Z,171.4
2018-12-03T06:52:53.763Z,150
2018-12-03T06:54:56.762Z,151.6
2018-12-03T06:55:57.121Z,164.3
2018-12-03T06:56:57.053Z,167.7
2018-12-03T06:57:56.750Z,169
2018-12-03T06:58:56.933Z,169.5
2018-12-03T07:00:15.081Z,169.8
2018-12-03T07:00:57.559Z,169.9
2018-12-03T07:01:57.264Z,170
2018-12-03T07:02:57.277Z,170
2018-12-03T07:03:56.748Z,170
2018-12-03T07:04:56.771Z,170
2018-12-03T07:05:56.798Z,170
2018-12-03T07:06:57.202Z,170
2018-12-03T07:07:57.553Z,170
2018-12-03T07:08:59.698Z,170
2018-12-03T07:09:58.917Z,170
2018-12-03T07:10:57.427Z,170
2018-12-03T07:11:59.779Z,170
2018-12-03T07:12:56.734Z,170
2018-12-03T07:13:56.675Z,170
2018-12-03T07:14:57.253Z,170
2018-12-03T07:15:57.023Z,170
2018-12-03T07:16:57.206Z,170
2018-12-03T07:17:56.724Z,170
2018-12-03T07:18:57.750Z,170
2018-12-03T07:19:59.416Z,170
2018-12-03T07:20:56.632Z,170
2018-12-03T07:21:56.661Z,170
2018-12-03T07:22:58.266Z,170
2018-12-03T07:23:57.322Z,170
2018-12-03T07:24:56.635Z,170
2018-12-03T07:25:57.167Z,170
2018-12-03T07:26:58.540Z,170
2018-12-03T07:27:57.307Z,170
2018-12-03T07:28:57.268Z,170
2018-12-03T07:29:56.804Z,170
2018-12-03T07:30:56.809Z,170
2018-12-03T07:31:56.827Z,170
2018-12-03T07:32:56.713Z,170
2018-12-03T07:33:56.815Z,170
2018-12-03T07:34:56.727Z,170
2018-12-03T07:35:56.718Z,170
2018-12-03T07:36:56.770Z,170
2018-12-03T07:37:56.792Z,170
2018-12-03T07:38:56.762Z,178.9
2018-12-03T07:39:59.334Z,186.2
2018-12-03T07:40:56.666Z,189.6
2018-12-03T07:42:02.022Z,191.2
2018-12-03T07:43:00.795Z,191.9
2018-12-03T07:43:56.671Z,183.3
2018-12-03T07:44:56.698Z,185.9
2018-12-03T07:45:56.771Z,179.4
2018-12-03T07:46:56.780Z,174.2
2018-12-03T07:47:56.743Z,184.2
2018-12-03T07:48:56.682Z,200.8
2018-12-03T07:49:56.693Z,214.9
2018-12-03T07:50:56.847Z,217.3
2018-12-03T07:51:56.705Z,222.8
2018-12-03T07:52:56.776Z,218.6
2018-12-03T07:53:56.713Z,216.7
2018-12-03T07:54:56.657Z,244.3
2018-12-03T07:55:56.787Z,228
2018-12-03T07:56:56.786Z,227.2
2018-12-03T07:57:57.179Z,227.5
2018-12-03T07:58:56.672Z,216.4
2018-12-03T07:59:56.692Z,203.3
2018-12-03T08:00:56.780Z,201.2
2018-12-03T08:01:56.886Z,212.2
2018-12-03T08:02:56.670Z,213.7
2018-12-03T08:03:56.746Z,217.3
2018-12-03T08:04:56.732Z,206.4
2018-12-03T08:05:56.647Z,187.8
2018-12-03T08:06:56.870Z,179.9
2018-12-03T08:07:56.721Z,186.8
2018-12-03T08:08:56.748Z,189.9
2018-12-03T08:09:56.756Z,191.3
2018-12-03T08:10:56.727Z,201.1
2018-12-03T08:11:57.770Z,208.9
2018-12-03T08:12:56.735Z,200.1
2018-12-03T08:13:56.754Z,196
2018-12-03T08:14:56.692Z,198.2
2018-12-03T08:15:57.005Z,203.5
2018-12-03T08:16:58.274Z,209.7
2018-12-03T08:17:56.841Z,213.5
2018-12-03T08:18:56.693Z,214.3
2018-12-03T08:20:00.071Z,214.7
2018-12-03T08:20:56.741Z,215.5
2018-12-03T08:21:56.829Z,214.3
2018-12-03T08:22:56.735Z,226.4
2018-12-03T08:23:56.730Z,236.4
2018-12-03T08:24:56.763Z,245.4
2018-12-03T08:25:56.826Z,229
2018-12-03T08:26:56.812Z,223.3
2018-12-03T08:27:56.622Z,206.2
2018-12-03T08:28:56.825Z,209.2
2018-12-03T08:29:56.720Z,214.5
2018-12-03T08:30:56.727Z,214.8
2018-12-03T08:31:56.787Z,217.5
2018-12-03T08:32:56.687Z,222.9
2018-12-03T08:33:56.690Z,232.1
2018-12-03T08:34:56.754Z,224.3
2018-12-03T08:35:56.745Z,221.9
2018-12-03T08:36:56.781Z,219.6
2018-12-03T08:37:56.834Z,217.2
2018-12-03T08:38:56.723Z,216
2018-12-03T08:39:56.664Z,203.5
2018-12-03T08:40:56.721Z,197.4
2018-12-03T08:41:56.709Z,194.8
2018-12-03T08:42:56.790Z,193.6
2018-12-03T08:43:57.055Z,195.4
2018-12-03T08:44:56.722Z,205.1
2018-12-03T08:45:56.749Z,210.5
2018-12-03T08:46:56.761Z,212.9
2018-12-03T08:47:56.745Z,214
2018-12-03T08:48:56.775Z,190.5
2018-12-03T08:49:56.650Z,179.2
2018-12-03T08:50:56.721Z,185.6
2018-12-03T08:51:56.801Z,189.4
2018-12-03T08:52:56.703Z,196
2018-12-03T08:53:56.730Z,206.2
2018-12-03T08:54:57.525Z,209.3
2018-12-03T08:55:56.692Z,224.1
2018-12-03T08:57:06.620Z,219.1
2018-12-03T08:57:56.703Z,218.8
2018-12-03T08:58:56.690Z,220.8
2018-12-03T08:59:56.723Z,228.4
2018-12-03T09:00:56.702Z,234.6
2018-12-03T09:01:56.726Z,225.7
2018-12-03T09:02:56.691Z,215.3
2018-12-03T09:03:56.707Z,191
2018-12-03T09:04:56.760Z,179
2018-12-03T09:05:57.556Z,177.4
2018-12-03T09:06:56.705Z,186.7
2018-12-03T09:07:56.712Z,202
2018-12-03T09:08:56.684Z,199.7
2018-12-03T09:09:56.689Z,204.3
2018-12-03T09:10:56.806Z,204
2018-12-03T09:11:56.683Z,209.9
2018-12-03T09:12:56.741Z,212.7
2018-12-03T09:13:56.731Z,220.3
2018-12-03T09:14:56.721Z,219.1
2018-12-03T09:15:56.801Z,194.4
2018-12-03T09:17:02.250Z,192.2
2018-12-03T09:17:56.686Z,198.8
2018-12-03T09:18:56.681Z,200.6
2018-12-03T09:19:56.816Z,214
2018-12-03T09:20:56.703Z,214.6
2018-12-03T09:21:56.692Z,215.1
2018-12-03T09:22:56.660Z,217.1
2018-12-03T09:23:56.725Z,216.7
2018-12-03T09:24:56.704Z,217.9
2018-12-03T09:25:56.826Z,222.4
2018-12-03T09:26:56.726Z,218.4
2018-12-03T09:27:56.685Z,213.3
2018-12-03T09:28:56.769Z,214.2
2018-12-03T09:29:56.718Z,213.4
2018-12-03T09:30:57.879Z,214.3
2018-12-03T09:31:56.791Z,193.6
2018-12-03T09:32:56.686Z,203.7
2018-12-03T09:33:56.723Z,212.9
2018-12-03T09:34:56.735Z,206.4
2018-12-03T09:35:56.793Z,213.9
2018-12-03T09:36:56.661Z,222.2
2018-12-03T09:37:56.678Z,218.2
2018-12-03T09:38:56.710Z,200.9
2018-12-03T09:39:56.768Z,183.7
2018-12-03T09:40:56.818Z,176.1
2018-12-03T09:41:56.697Z,172.7
2018-12-03T09:42:56.691Z,171.3
2018-12-03T09:43:56.625Z,170.6
2018-12-03T09:44:56.803Z,170.3
2018-12-03T09:45:56.654Z,170.1
2018-12-03T09:46:56.689Z,180
2018-12-03T09:47:57.911Z,188.5
2018-12-03T09:48:56.702Z,202.7
2018-12-03T09:49:56.684Z,209.2
2018-12-03T09:50:56.746Z,215.2
2018-12-03T09:51:56.712Z,217.6
2018-12-03T09:52:56.850Z,216.2
2018-12-03T09:53:56.847Z,215.5
2018-12-03T09:54:56.818Z,215.3
2018-12-03T09:55:56.913Z,215.1
2018-12-03T09:56:56.813Z,226.1
2018-12-03T09:57:56.819Z,237.1
2018-12-03T09:58:56.833Z,232.2
2018-12-03T09:59:56.829Z,223.8
2018-12-03T10:00:56.830Z,219
2018-12-03T10:01:56.819Z,216.9
2018-12-03T10:02:56.809Z,225.5
2018-12-03T10:03:56.807Z,233
2018-12-03T10:04:56.889Z,238
2018-12-03T10:05:56.814Z,240.2
2018-12-03T10:06:56.799Z,222.6
2018-12-03T10:07:56.793Z,218.4
2018-12-03T10:08:56.814Z,214.8
2018-12-03T10:09:56.830Z,219.2
2018-12-03T10:10:56.836Z,224
2018-12-03T10:11:56.928Z,225.7
2018-12-03T10:12:56.824Z,228.7
2018-12-03T10:13:56.785Z,225.9
2018-12-03T10:14:56.896Z,222.4
2018-12-03T10:15:56.804Z,223
2018-12-03T10:16:56.775Z,226.3
2018-12-03T10:17:56.871Z,238
2018-12-03T10:19:02.745Z,248.7
2018-12-03T10:19:56.803Z,251.8
2018-12-03T10:20:56.800Z,252.4
2018-12-03T10:21:56.956Z,238.1
2018-12-03T10:22:56.863Z,230.1
2018-12-03T10:23:56.889Z,221.8
2018-12-03T10:24:56.918Z,227.4
2018-12-03T10:25:56.823Z,233.1
2018-12-03T10:26:56.824Z,234.4
2018-12-03T10:27:56.742Z,233.5
2018-12-03T10:28:56.882Z,223.4
2018-12-03T10:29:56.800Z,229.9
2018-12-03T10:30:56.885Z,223.7
2018-12-03T10:31:56.820Z,219.1
2018-12-03T10:32:56.796Z,238.6
2018-12-03T10:33:56.802Z,237.6
2018-12-03T10:34:56.825Z,229.2
2018-12-03T10:35:56.810Z,233.2
2018-12-03T10:36:56.842Z,235.5
2018-12-03T10:37:56.846Z,239.4
2018-12-03T10:38:56.825Z,229
2018-12-03T10:39:56.813Z,221.2
2018-12-03T10:40:56.806Z,232
2018-12-03T10:41:56.782Z,237.9
2018-12-03T10:42:56.802Z,244.8
2018-12-03T10:43:57.300Z,236.5
2018-12-03T10:44:56.729Z,232.4
2018-12-03T10:45:56.831Z,234.4
2018-12-03T10:46:56.795Z,231.7
2018-12-03T10:47:56.871Z,245.8
2018-12-03T10:48:56.740Z,240.6
2018-12-03T10:49:56.873Z,250.9
2018-12-03T10:50:56.766Z,233.2
2018-12-03T10:51:56.812Z,228.3
2018-12-03T10:52:56.874Z,222.1
2018-12-03T10:53:56.865Z,218.2
2018-12-03T10:54:56.797Z,216.5
2018-12-03T10:55:56.802Z,215.7
2018-12-03T10:56:56.788Z,215.3
2018-12-03T10:57:56.819Z,215.1
2018-12-03T10:58:56.854Z,223.7
2018-12-03T10:59:56.770Z,244.4
2018-12-03T11:00:56.803Z,242.5
2018-12-03T11:01:56.941Z,244.7
2018-12-03T11:02:56.811Z,239.4
2018-12-03T11:03:56.814Z,226.2
2018-12-03T11:04:56.780Z,222.5
2018-12-03T11:05:56.781Z,218.5
2018-12-03T11:06:56.787Z,216.6
2018-12-03T11:07:58.932Z,215.8
2018-12-03T11:08:56.758Z,214.8
2018-12-03T11:09:57.045Z,214.9
2018-12-03T11:10:56.735Z,215
2018-12-03T11:11:56.839Z,214.4
2018-12-03T11:12:56.834Z,214.7
2018-12-03T11:13:56.808Z,214.9
2018-12-03T11:14:56.830Z,214.3
2018-12-03T11:15:56.802Z,214.7
2018-12-03T11:16:56.785Z,214.8
2018-12-03T11:17:56.786Z,214.9
2018-12-03T11:18:56.825Z,215
2018-12-03T11:19:56.796Z,215
2018-12-03T11:20:56.848Z,215
2018-12-03T11:21:56.744Z,215
2018-12-03T11:23:06.705Z,215
2018-12-03T11:23:57.323Z,216.4
2018-12-03T11:24:56.974Z,215.7
2018-12-03T11:25:56.787Z,215.3
2018-12-03T11:26:56.780Z,215.1
2018-12-03T11:27:56.708Z,215.1
2018-12-03T11:28:56.740Z,215
2018-12-03T11:29:57.311Z,215
2018-12-03T11:30:59.657Z,215
2018-12-03T11:31:56.970Z,215.3
2018-12-03T11:32:57.285Z,215.1
2018-12-03T11:33:57.149Z,216.1
2018-12-03T11:34:56.812Z,226.9
2018-12-03T11:35:56.865Z,234.1
2018-12-03T11:36:56.844Z,231.5
2018-12-03T11:37:58.015Z,236.4
2018-12-03T11:38:56.738Z,229.5
2018-12-03T11:39:56.914Z,225.8
2018-12-03T11:40:56.804Z,240.8
2018-12-03T11:41:56.762Z,256
2018-12-03T11:42:56.786Z,258.5
2018-12-03T11:43:56.746Z,262.1
2018-12-03T11:44:56.865Z,245.7
2018-12-03T11:45:56.783Z,254
2018-12-03T11:46:56.774Z,256.2
2018-12-03T11:47:56.877Z,245.9
2018-12-03T11:48:56.743Z,229
2018-12-03T11:49:56.722Z,221.4
2018-12-03T11:50:56.847Z,217.8
2018-12-03T11:51:56.860Z,216.4
2018-12-03T11:52:56.846Z,215.6
2018-12-03T11:53:56.793Z,215.3
2018-12-03T11:54:56.832Z,215.1
2018-12-03T11:55:56.833Z,215.1
2018-12-03T11:56:56.797Z,215
2018-12-03T11:57:56.804Z,215
2018-12-03T11:58:56.823Z,215
2018-12-03T11:59:56.816Z,215
2018-12-03T12:00:56.827Z,215
2018-12-03T12:01:56.814Z,215
2018-12-03T12:02:57.859Z,214.7
2018-12-03T12:03:56.803Z,214.8
2018-12-03T12:04:56.782Z,214.9
2018-12-03T12:05:56.719Z,215
2018-12-03T12:06:56.851Z,215
2018-12-03T12:07:56.856Z,215
2018-12-03T12:08:56.815Z,215
2018-12-03T12:09:56.763Z,215
2018-12-03T12:10:56.712Z,204
2018-12-03T12:11:56.765Z,197.8
2018-12-03T12:12:56.855Z,194.9
2018-12-03T12:13:56.793Z,193.6
2018-12-03T12:14:56.894Z,193
2018-12-03T12:15:56.759Z,192.7
2018-12-03T12:16:56.723Z,192.6
2018-12-03T12:17:56.785Z,202.5
2018-12-03T12:18:56.784Z,209.2
2018-12-03T12:19:56.867Z,212.3
2018-12-03T12:20:56.865Z,213.7
2018-12-03T12:21:56.738Z,214.4
2018-12-03T12:22:56.863Z,214.7
2018-12-03T12:23:56.784Z,214.9
2018-12-03T12:24:56.762Z,214.9
2018-12-03T12:25:56.793Z,215
2018-12-03T12:26:56.809Z,215
2018-12-03T12:27:56.780Z,215
2018-12-03T12:28:56.778Z,215
2018-12-03T12:29:56.799Z,215
2018-12-03T12:30:56.869Z,215
2018-12-03T12:31:56.813Z,215
2018-12-03T12:32:56.778Z,215
2018-12-03T12:33:56.804Z,215
2018-12-03T12:34:56.837Z,215
2018-12-03T12:35:56.842Z,215
2018-12-03T12:36:56.791Z,215
2018-12-03T12:38:00.307Z,215
2018-12-03T12:38:56.781Z,215
2018-12-03T12:39:56.840Z,215
2018-12-03T12:40:56.780Z,215
2018-12-03T12:41:56.827Z,215
2018-12-03T12:42:56.795Z,215
2018-12-03T12:43:56.796Z,215
2018-12-03T12:44:56.837Z,215
2018-12-03T12:45:56.769Z,215
2018-12-03T12:46:56.756Z,215
2018-12-03T12:47:56.794Z,215
2018-12-03T12:48:56.745Z,215
2018-12-03T12:49:56.860Z,215
2018-12-03T12:50:56.800Z,215
2018-12-03T12:51:56.761Z,215
2018-12-03T12:52:56.807Z,215
2018-12-03T12:53:56.786Z,215
2018-12-03T12:54:56.790Z,215
2018-12-03T12:55:56.794Z,215
2018-12-03T12:56:56.781Z,215
2018-12-03T12:57:56.773Z,215
2018-12-03T12:58:56.783Z,215
2018-12-03T12:59:56.783Z,215
2018-12-03T13:00:56.725Z,215
2018-12-03T13:01:56.790Z,215
2018-12-03T13:02:56.829Z,211.4
2018-12-03T13:03:56.775Z,201.3
2018-12-03T13:04:56.853Z,196.6
2018-12-03T13:05:57.878Z,194.4
2018-12-03T13:06:56.777Z,193.4
2018-12-03T13:07:56.884Z,192.9
2018-12-03T13:08:56.830Z,191.1
2018-12-03T13:09:56.760Z,180
2018-12-03T13:10:56.693Z,174.5
2018-12-03T13:11:56.804Z,172.1
2018-12-03T13:12:56.844Z,171
2018-12-03T13:13:56.783Z,170.5
2018-12-03T13:14:56.805Z,170.2
2018-12-03T13:15:56.806Z,170.1